42.1°F
Current conditions from King Hill
Updated every 5 minutes
 
  Saturday April 19, 2014

Station Historical Data
Daily Summary for January 31, 2012 Units:  English    Metric   Both
« Previous Day
Next Day »
Daily Weekly Monthly Yearly Custom
  High: Low: Average:
Temperature: 37.1 °F 15.4 °F 24 °F
Dew Point: 28.2 °F 10.1 °F 19.2 °F
Humidity: 89% 70% 82%
Wind Speed: 4.0mph 0.0mph 1.8mph
Wind Gust: 10.0mph - -
Wind- - SSE
Pressure: 30.20 in 29.85 in -
Precipitation: 0.00 in    
Historical Graphs
 
 
Tabular Data for January 31, 2012
Time Temperature Dew Point Pressure Wind Wind Speed Wind Gust Humidity Daily Rainfall
00:04 15.4 °F 10.1 °F 30.20 in Calm     79% 0.00 in
00:09 15.5 °F 10.2 °F 30.20 in Calm     79% 0.00 in
00:14 15.5 °F 10.4 °F 30.20 in Calm     80% 0.00 in
00:19 15.7 °F 10.6 °F 30.20 in Calm     80% 0.00 in
00:24 15.8 °F 10.7 °F 30.20 in Calm     80% 0.00 in
00:29 15.8 °F 10.7 °F 30.20 in Calm     80% 0.00 in
00:34 15.9 °F 10.8 °F 30.20 in Calm     80% 0.00 in
00:39 16.0 °F 10.9 °F 30.19 in Calm     80% 0.00 in
00:44 16.1 °F 10.7 °F 30.19 in Calm     79% 0.00 in
00:49 16.2 °F 10.8 °F 30.19 in Calm     79% 0.00 in
00:54 16.2 °F 10.8 °F 30.18 in Calm     79% 0.00 in
00:59 16.1 °F 10.7 °F 30.18 in Calm   1.0 mph 79% 0.00 in
01:04 15.9 °F 10.5 °F 30.18 in Calm   1.0 mph 79% 0.00 in
01:09 15.7 °F 10.3 °F 30.18 in Calm     79% 0.00 in
01:14 15.6 °F 10.3 °F 30.18 in Calm     79% 0.00 in
01:19 15.6 °F 10.3 °F 30.18 in Calm   1.0 mph 79% 0.00 in
01:24 15.7 °F 10.3 °F 30.18 in Calm   1.0 mph 79% 0.00 in
01:29 15.7 °F 10.3 °F 30.18 in Calm   1.0 mph 79% 0.00 in
01:34 15.9 °F 10.5 °F 30.18 in Calm   1.0 mph 79% 0.00 in
01:39 16.0 °F 10.6 °F 30.17 in Calm   1.0 mph 79% 0.00 in
01:44 16.1 °F 10.7 °F 30.17 in Calm   1.0 mph 79% 0.00 in
01:49 16.3 °F 11.2 °F 30.17 in WNW 1.0 mph 4.0 mph 80% 0.00 in
01:54 16.6 °F 11.2 °F 30.17 in Calm   4.0 mph 79% 0.00 in
01:59 16.7 °F 11.3 °F 30.17 in Calm   3.0 mph 79% 0.00 in
02:04 16.7 °F 11.3 °F 30.17 in Calm   1.0 mph 79% 0.00 in
02:09 16.6 °F 11.2 °F 30.16 in Calm   2.0 mph 79% 0.00 in
02:14 16.5 °F 11.1 °F 30.16 in Calm   2.0 mph 79% 0.00 in
02:19 16.4 °F 11.0 °F 30.16 in Calm     79% 0.00 in
02:24 16.3 °F 10.9 °F 30.16 in Calm     79% 0.00 in
02:29 16.3 °F 10.9 °F 30.16 in Calm     79% 0.00 in
02:34 16.3 °F 10.9 °F 30.15 in Calm     79% 0.00 in
02:39 16.2 °F 11.1 °F 30.15 in Calm     80% 0.00 in
02:44 16.3 °F 11.2 °F 30.15 in Calm     80% 0.00 in
02:49 16.3 °F 11.2 °F 30.15 in Calm     80% 0.00 in
02:54 16.3 °F 11.2 °F 30.15 in Calm     80% 0.00 in
02:59 16.3 °F 11.2 °F 30.15 in Calm     80% 0.00 in
03:04 16.4 °F 11.3 °F 30.14 in Calm     80% 0.00 in
03:09 16.4 °F 11.3 °F 30.14 in East 1.0 mph 3.0 mph 80% 0.00 in
03:14 16.4 °F 11.3 °F 30.14 in Calm   3.0 mph 80% 0.00 in
03:19 16.4 °F 11.3 °F 30.13 in Calm   3.0 mph 80% 0.00 in
03:24 16.4 °F 11.3 °F 30.13 in Calm   3.0 mph 80% 0.00 in
03:29 16.3 °F 11.2 °F 30.13 in Calm   2.0 mph 80% 0.00 in
03:34 16.3 °F 11.2 °F 30.13 in Calm   2.0 mph 80% 0.00 in
03:39 16.3 °F 11.2 °F 30.13 in Calm   1.0 mph 80% 0.00 in
03:44 16.3 °F 11.2 °F 30.13 in East 1.0 mph 3.0 mph 80% 0.00 in
03:49 16.2 °F 11.1 °F 30.13 in Calm   3.0 mph 80% 0.00 in
03:54 16.2 °F 11.4 °F 30.13 in East 1.0 mph 3.0 mph 81% 0.00 in
03:59 16.2 °F 11.4 °F 30.13 in East 1.0 mph 3.0 mph 81% 0.00 in
04:04 16.2 °F 11.4 °F 30.13 in Calm   3.0 mph 81% 0.00 in
04:09 16.3 °F 11.5 °F 30.13 in East 2.0 mph 3.0 mph 81% 0.00 in
04:14 16.3 °F 11.5 °F 30.13 in Calm   5.0 mph 81% 0.00 in
04:19 16.3 °F 11.5 °F 30.13 in Calm   5.0 mph 81% 0.00 in
04:24 16.3 °F 11.5 °F 30.13 in Calm   2.0 mph 81% 0.00 in
04:29 16.4 °F 11.6 °F 30.13 in Calm   2.0 mph 81% 0.00 in
04:34 16.4 °F 11.9 °F 30.12 in Calm   3.0 mph 82% 0.00 in
04:40 16.5 °F 12.0 °F 30.13 in East 1.0 mph 5.0 mph 82% 0.00 in
04:49 16.6 °F 12.1 °F 30.12 in East 2.0 mph 3.0 mph 82% 0.00 in
04:54 16.6 °F 12.1 °F 30.12 in ENE 1.0 mph 3.0 mph 82% 0.00 in
04:59 16.6 °F 12.1 °F 30.13 in Calm   3.0 mph 82% 0.00 in
05:04 16.7 °F 12.2 °F 30.13 in ENE 1.0 mph 3.0 mph 82% 0.00 in
05:09 16.7 °F 12.2 °F 30.12 in Calm   3.0 mph 82% 0.00 in
05:14 16.8 °F 12.3 °F 30.12 in Calm   2.0 mph 82% 0.00 in
05:19 16.8 °F 12.3 °F 30.12 in ENE 1.0 mph 3.0 mph 82% 0.00 in
05:24 16.8 °F 12.3 °F 30.12 in ENE 1.0 mph 3.0 mph 82% 0.00 in
05:29 16.8 °F 12.5 °F 30.12 in ENE 1.0 mph 4.0 mph 83% 0.00 in
05:34 16.8 °F 12.5 °F 30.11 in Calm   4.0 mph 83% 0.00 in
05:39 16.8 °F 12.5 °F 30.11 in ENE 1.0 mph 3.0 mph 83% 0.00 in
05:44 16.8 °F 12.5 °F 30.11 in ENE 1.0 mph 3.0 mph 83% 0.00 in
05:49 16.8 °F 12.5 °F 30.11 in Calm   5.0 mph 83% 0.00 in
05:54 16.9 °F 12.6 °F 30.11 in East 1.0 mph 5.0 mph 83% 0.00 in
05:59 16.9 °F 12.6 °F 30.10 in Calm   3.0 mph 83% 0.00 in
06:04 17.0 °F 12.7 °F 30.10 in East 2.0 mph 5.0 mph 83% 0.00 in
06:09 17.0 °F 12.7 °F 30.10 in ENE 1.0 mph 5.0 mph 83% 0.00 in
06:14 17.1 °F 12.8 °F 30.10 in Calm   5.0 mph 83% 0.00 in
06:19 17.1 °F 12.8 °F 30.09 in East 1.0 mph 5.0 mph 83% 0.00 in
06:24 17.2 °F 12.9 °F 30.09 in Calm   5.0 mph 83% 0.00 in
06:29 17.2 °F 12.9 °F 30.09 in Calm   5.0 mph 83% 0.00 in
06:34 17.3 °F 13.0 °F 30.08 in Calm   3.0 mph 83% 0.00 in
06:39 17.5 °F 13.2 °F 30.09 in Calm   5.0 mph 83% 0.00 in
06:44 17.6 °F 13.3 °F 30.09 in Calm   5.0 mph 83% 0.00 in
06:49 17.7 °F 13.4 °F 30.09 in Calm   1.0 mph 83% 0.00 in
06:54 17.8 °F 13.5 °F 30.09 in Calm   3.0 mph 83% 0.00 in
06:59 17.8 °F 13.5 °F 30.09 in Calm   3.0 mph 83% 0.00 in
07:04 17.9 °F 13.6 °F 30.10 in Calm   3.0 mph 83% 0.00 in
07:09 17.9 °F 13.6 °F 30.10 in Calm   3.0 mph 83% 0.00 in
07:14 18.0 °F 13.7 °F 30.10 in Calm   2.0 mph 83% 0.00 in
07:19 18.0 °F 13.4 °F 30.10 in Calm   2.0 mph 82% 0.00 in
07:24 18.1 °F 13.5 °F 30.10 in East 1.0 mph 3.0 mph 82% 0.00 in
07:30 18.2 °F 13.6 °F 30.10 in East 1.0 mph 5.0 mph 82% 0.00 in
07:39 18.4 °F 13.8 °F 30.10 in Calm   3.0 mph 82% 0.00 in
07:44 18.4 °F 13.8 °F 30.09 in Calm   2.0 mph 82% 0.00 in
07:49 18.5 °F 13.9 °F 30.09 in Calm   2.0 mph 82% 0.00 in
07:54 18.6 °F 14.0 °F 30.09 in Calm   1.0 mph 82% 0.00 in
07:59 18.7 °F 14.1 °F 30.09 in Calm   2.0 mph 82% 0.00 in
08:04 18.8 °F 14.2 °F 30.09 in Calm   2.0 mph 82% 0.00 in
08:09 19.0 °F 14.4 °F 30.08 in Calm   2.0 mph 82% 0.00 in
08:14 19.0 °F 14.4 °F 30.09 in Calm     82% 0.00 in
08:19 19.2 °F 14.6 °F 30.09 in Calm   1.0 mph 82% 0.00 in
08:24 19.3 °F 14.7 °F 30.08 in Calm   1.0 mph 82% 0.00 in
08:29 19.4 °F 14.8 °F 30.08 in Calm   1.0 mph 82% 0.00 in
08:34 19.6 °F 15.0 °F 30.09 in Calm   1.0 mph 82% 0.00 in
08:39 19.7 °F 15.1 °F 30.09 in Calm   1.0 mph 82% 0.00 in
08:44 19.9 °F 15.3 °F 30.09 in Calm   1.0 mph 82% 0.00 in
08:49 20.0 °F 15.1 °F 30.09 in Calm     81% 0.00 in
08:54 20.3 °F 15.4 °F 30.08 in Calm     81% 0.00 in
08:59 20.5 °F 15.6 °F 30.08 in Calm     81% 0.00 in
09:04 20.8 °F 15.9 °F 30.08 in Calm     81% 0.00 in
09:09 21.1 °F 16.2 °F 30.08 in Calm     81% 0.00 in
09:14 21.5 °F 16.6 °F 30.08 in Calm     81% 0.00 in
09:19 21.8 °F 16.6 °F 30.08 in Calm     80% 0.00 in
09:24 22.2 °F 17.0 °F 30.08 in Calm     80% 0.00 in
09:29 22.5 °F 17.3 °F 30.08 in Calm     80% 0.00 in
09:34 22.9 °F 17.4 °F 30.08 in Calm     79% 0.00 in
09:39 23.1 °F 17.3 °F 30.07 in Calm     78% 0.00 in
09:44 23.4 °F 17.6 °F 30.08 in Calm     78% 0.00 in
09:49 23.6 °F 17.5 °F 30.07 in Calm   2.0 mph 77% 0.00 in
09:54 23.7 °F 17.5 °F 30.07 in East 1.0 mph 3.0 mph 77% 0.00 in
09:59 23.8 °F 17.6 °F 30.07 in East 1.0 mph 3.0 mph 77% 0.00 in
10:04 23.9 °F 17.7 °F 30.07 in East 1.0 mph 2.0 mph 77% 0.00 in
10:09 24.1 °F 17.9 °F 30.07 in East 1.0 mph 2.0 mph 77% 0.00 in
10:14 24.3 °F 18.1 °F 30.07 in Calm   2.0 mph 77% 0.00 in
10:19 24.6 °F 18.4 °F 30.07 in Calm   2.0 mph 77% 0.00 in
10:24 24.8 °F 18.6 °F 30.07 in East 1.0 mph 2.0 mph 77% 0.00 in
10:29 24.9 °F 18.7 °F 30.06 in Calm   2.0 mph 77% 0.00 in
10:34 25.2 °F 19.3 °F 30.06 in Calm   1.0 mph 78% 0.00 in
10:39 25.5 °F 19.6 °F 30.06 in Calm   1.0 mph 78% 0.00 in
10:44 25.8 °F 19.9 °F 30.06 in East 1.0 mph 5.0 mph 78% 0.00 in
10:49 26.1 °F 20.2 °F 30.06 in Calm   5.0 mph 78% 0.00 in
10:54 26.3 °F 20.7 °F 30.06 in SW 1.0 mph 6.0 mph 79% 0.00 in
10:59 26.4 °F 20.8 °F 30.05 in Calm   6.0 mph 79% 0.00 in
11:04 26.3 °F 20.7 °F 30.05 in SE 1.0 mph 4.0 mph 79% 0.00 in
11:09 26.1 °F 20.5 °F 30.05 in ESE 1.0 mph 4.0 mph 79% 0.00 in
11:14 25.9 °F 20.3 °F 30.04 in Calm   3.0 mph 79% 0.00 in
11:19 26.0 °F 20.7 °F 30.04 in Calm   2.0 mph 80% 0.00 in
11:24 26.3 °F 21.0 °F 30.04 in Calm   1.0 mph 80% 0.00 in
11:29 27.0 °F 22.2 °F 30.03 in SSE 1.0 mph 5.0 mph 82% 0.00 in
11:34 27.4 °F 22.6 °F 30.03 in SSE 1.0 mph 5.0 mph 82% 0.00 in
11:39 27.7 °F 22.9 °F 30.03 in Calm   3.0 mph 82% 0.00 in
11:44 27.5 °F 22.4 °F 30.02 in Calm   2.0 mph 81% 0.00 in
11:49 27.4 °F 22.0 °F 30.02 in Calm   2.0 mph 80% 0.00 in
11:54 27.6 °F 22.5 °F 30.02 in Calm   2.0 mph 81% 0.00 in
11:59 28.0 °F 22.9 °F 30.02 in Calm   1.0 mph 81% 0.00 in
12:04 28.7 °F 23.9 °F 30.01 in SSE 1.0 mph 3.0 mph 82% 0.00 in
12:09 28.9 °F 23.8 °F 30.01 in SSE 2.0 mph 5.0 mph 81% 0.00 in
12:14 28.6 °F 23.2 °F 30.01 in SSE 2.0 mph 5.0 mph 80% 0.00 in
12:19 28.2 °F 22.8 °F 30.00 in SSE 1.0 mph 5.0 mph 80% 0.00 in
12:24 28.0 °F 22.9 °F 30.00 in SSE 1.0 mph 3.0 mph 81% 0.00 in
12:29 27.6 °F 22.5 °F 30.00 in SSE 2.0 mph 3.0 mph 81% 0.00 in
12:34 27.5 °F 22.7 °F 30.00 in Calm   3.0 mph 82% 0.00 in
12:39 27.7 °F 22.9 °F 30.00 in Calm   3.0 mph 82% 0.00 in
12:44 27.9 °F 23.1 °F 30.00 in Calm   2.0 mph 82% 0.00 in
12:49 28.1 °F 23.6 °F 29.99 in Calm   2.0 mph 83% 0.00 in
12:54 28.0 °F 23.2 °F 29.99 in Calm   2.0 mph 82% 0.00 in
12:59 27.9 °F 23.1 °F 29.99 in SSE 1.0 mph 3.0 mph 82% 0.00 in
13:04 27.7 °F 22.9 °F 29.98 in SSE 1.0 mph 3.0 mph 82% 0.00 in
13:09 27.4 °F 22.6 °F 29.98 in SSE 1.0 mph 3.0 mph 82% 0.00 in
13:14 27.3 °F 22.8 °F 29.98 in Calm   3.0 mph 83% 0.00 in
13:19 27.2 °F 22.7 °F 29.98 in Calm   3.0 mph 83% 0.00 in
13:29 27.2 °F 23.0 °F 29.97 in Calm   3.0 mph 84% 0.00 in
13:34 27.4 °F 23.2 °F 29.97 in SSE 1.0 mph 3.0 mph 84% 0.00 in
13:40 27.5 °F 23.3 °F 29.97 in Calm   4.0 mph 84% 0.00 in
13:49 27.4 °F 23.2 °F 29.97 in Calm   3.0 mph 84% 0.00 in
13:54 27.4 °F 23.5 °F 29.97 in SSE 1.0 mph 3.0 mph 85% 0.00 in
13:59 27.2 °F 23.3 °F 29.97 in SSE 1.0 mph 3.0 mph 85% 0.00 in
14:04 27.1 °F 23.2 °F 29.97 in SSE 1.0 mph 3.0 mph 85% 0.00 in
14:09 27.1 °F 23.2 °F 29.97 in Calm   3.0 mph 85% 0.00 in
14:14 27.0 °F 23.1 °F 29.97 in SSE 2.0 mph 4.0 mph 85% 0.00 in
14:19 27.0 °F 23.1 °F 29.97 in SSE 1.0 mph 4.0 mph 85% 0.00 in
14:24 27.0 °F 23.4 °F 29.97 in SSE 1.0 mph 4.0 mph 86% 0.00 in
14:29 27.0 °F 23.4 °F 29.97 in Calm   4.0 mph 86% 0.00 in
14:34 27.1 °F 23.5 °F 29.97 in SSE 1.0 mph 4.0 mph 86% 0.00 in
14:39 27.0 °F 23.4 °F 29.97 in SSE 1.0 mph 3.0 mph 86% 0.00 in
14:44 27.0 °F 23.4 °F 29.97 in SSE 2.0 mph 3.0 mph 86% 0.00 in
14:49 27.0 °F 23.4 °F 29.97 in SSE 2.0 mph 5.0 mph 86% 0.00 in
14:54 27.0 °F 23.4 °F 29.97 in SSE 1.0 mph 5.0 mph 86% 0.00 in
14:59 26.9 °F 23.3 °F 29.97 in SSE 2.0 mph 4.0 mph 86% 0.00 in
15:04 26.9 °F 23.3 °F 29.97 in SSE 2.0 mph 5.0 mph 86% 0.00 in
15:09 26.8 °F 23.2 °F 29.97 in SSE 1.0 mph 5.0 mph 86% 0.00 in
15:14 26.8 °F 23.5 °F 29.97 in SSE 2.0 mph 4.0 mph 87% 0.00 in
15:19 26.9 °F 23.6 °F 29.97 in SSE 1.0 mph 4.0 mph 87% 0.00 in
15:24 26.9 °F 23.6 °F 29.97 in SSE 1.0 mph 4.0 mph 87% 0.00 in
15:29 26.9 °F 23.6 °F 29.97 in SSE 1.0 mph 4.0 mph 87% 0.00 in
15:34 26.9 °F 23.6 °F 29.97 in SSE 2.0 mph 4.0 mph 87% 0.00 in
15:39 26.8 °F 23.5 °F 29.97 in SSE 1.0 mph 4.0 mph 87% 0.00 in
15:45 26.8 °F 23.5 °F 29.97 in SSE 1.0 mph 4.0 mph 87% 0.00 in
15:54 26.7 °F 23.4 °F 29.97 in SSE 1.0 mph 5.0 mph 87% 0.00 in
15:59 26.7 °F 23.4 °F 29.97 in SSE 1.0 mph 3.0 mph 87% 0.00 in
16:04 26.8 °F 23.5 °F 29.97 in Calm   2.0 mph 87% 0.00 in
16:09 26.7 °F 23.4 °F 29.96 in SSE 2.0 mph 5.0 mph 87% 0.00 in
16:14 26.7 °F 23.4 °F 29.96 in SSE 2.0 mph 6.0 mph 87% 0.00 in
16:19 26.7 °F 23.6 °F 29.97 in SSE 2.0 mph 6.0 mph 88% 0.00 in
16:24 26.7 °F 23.4 °F 29.96 in SSE 2.0 mph 4.0 mph 87% 0.00 in
16:29 26.7 °F 23.4 °F 29.96 in Calm   6.0 mph 87% 0.00 in
16:34 26.7 °F 23.6 °F 29.96 in East 2.0 mph 6.0 mph 88% 0.00 in
16:39 26.7 °F 23.6 °F 29.96 in ENE 2.0 mph 5.0 mph 88% 0.00 in
17:24 26.9 °F 24.1 °F 29.95 in Calm   1.0 mph 89% 0.00 in
17:29 27.0 °F 24.2 °F 29.95 in Calm   1.0 mph 89% 0.00 in
17:34 27.0 °F 24.2 °F 29.95 in Calm     89% 0.00 in
17:39 27.0 °F 24.2 °F 29.96 in ENE 1.0 mph 2.0 mph 89% 0.00 in
17:44 27.1 °F 24.3 °F 29.95 in Calm   2.0 mph 89% 0.00 in
17:49 27.1 °F 24.3 °F 29.95 in Calm     89% 0.00 in
17:54 27.2 °F 24.1 °F 29.95 in Calm     88% 0.00 in
17:59 27.2 °F 24.1 °F 29.95 in Calm     88% 0.00 in
18:04 27.3 °F 24.2 °F 29.95 in ENE 1.0 mph 1.0 mph 88% 0.00 in
18:09 27.3 °F 24.2 °F 29.95 in Calm   1.0 mph 88% 0.00 in
18:14 27.3 °F 24.2 °F 29.95 in Calm   1.0 mph 88% 0.00 in
18:19 27.4 °F 24.3 °F 29.95 in Calm   1.0 mph 88% 0.00 in
18:24 27.4 °F 24.3 °F 29.95 in Calm     88% 0.00 in
18:30 27.5 °F 24.4 °F 29.96 in Calm   1.0 mph 88% 0.00 in
18:35 27.5 °F 24.4 °F 29.95 in ENE 1.0 mph 2.0 mph 88% 0.00 in
18:44 27.6 °F 24.5 °F 29.95 in Calm   2.0 mph 88% 0.00 in
18:49 27.6 °F 24.5 °F 29.94 in Calm     88% 0.00 in
18:54 27.7 °F 24.6 °F 29.94 in Calm     88% 0.00 in
18:59 27.8 °F 24.7 °F 29.95 in Calm     88% 0.00 in
19:04 27.8 °F 24.7 °F 29.95 in Calm   1.0 mph 88% 0.00 in
19:09 27.9 °F 24.8 °F 29.94 in Calm   1.0 mph 88% 0.00 in
19:19 28.0 °F 24.9 °F 29.94 in Calm     88% 0.00 in
19:24 28.0 °F 24.9 °F 29.94 in Calm     88% 0.00 in
19:35 28.2 °F 25.1 °F 29.94 in Calm     88% 0.00 in
19:44 28.3 °F 25.2 °F 29.93 in Calm     88% 0.00 in
19:49 28.4 °F 25.3 °F 29.93 in Calm     88% 0.00 in
19:54 28.4 °F 25.3 °F 29.93 in Calm     88% 0.00 in
19:59 28.5 °F 25.4 °F 29.93 in Calm     88% 0.00 in
20:04 28.6 °F 25.2 °F 29.93 in Calm     87% 0.00 in
20:09 28.7 °F 25.3 °F 29.93 in Calm     87% 0.00 in
20:14 28.8 °F 25.7 °F 29.93 in Calm     88% 0.00 in
20:19 28.9 °F 25.8 °F 29.93 in Calm     88% 0.00 in
20:24 29.0 °F 25.9 °F 29.93 in Calm     88% 0.00 in
20:29 29.1 °F 26.0 °F 29.92 in ENE 1.0 mph 3.0 mph 88% 0.00 in
20:34 29.4 °F 26.3 °F 29.92 in SSW 1.0 mph 5.0 mph 88% 0.00 in
20:39 30.4 °F 27.0 °F 29.92 in SSW 2.0 mph 6.0 mph 87% 0.00 in
20:44 31.5 °F 27.2 °F 29.92 in SSW 2.0 mph 8.0 mph 84% 0.00 in
20:49 32.2 °F 27.3 °F 29.92 in SSW 2.0 mph 8.0 mph 82% 0.00 in
20:54 32.6 °F 27.1 °F 29.91 in SSW 3.0 mph 6.0 mph 80% 0.00 in
20:59 32.9 °F 27.1 °F 29.92 in SSW 2.0 mph 7.0 mph 79% 0.00 in
21:04 33.0 °F 26.9 °F 29.92 in SSW 3.0 mph 7.0 mph 78% 0.00 in
21:09 33.1 °F 27.0 °F 29.91 in SSW 2.0 mph 6.0 mph 78% 0.00 in
21:14 33.3 °F 27.2 °F 29.91 in SSW 3.0 mph 7.0 mph 78% 0.00 in
21:19 33.5 °F 27.1 °F 29.90 in SSW 4.0 mph 7.0 mph 77% 0.00 in
21:24 33.8 °F 27.4 °F 29.90 in SSW 4.0 mph 7.0 mph 77% 0.00 in
21:29 34.0 °F 27.2 °F 29.90 in SSW 3.0 mph 7.0 mph 76% 0.00 in
21:35 34.1 °F 27.3 °F 29.90 in SSW 3.0 mph 6.0 mph 76% 0.00 in
21:44 34.4 °F 27.3 °F 29.90 in SSW 3.0 mph 7.0 mph 75% 0.00 in
21:49 34.2 °F 27.1 °F 29.89 in Calm   7.0 mph 75% 0.00 in
21:54 34.2 °F 27.1 °F 29.89 in SSW 2.0 mph 5.0 mph 75% 0.00 in
21:59 34.2 °F 27.4 °F 29.89 in SSW 1.0 mph 4.0 mph 76% 0.00 in
22:04 34.3 °F 27.5 °F 29.89 in SSW 2.0 mph 5.0 mph 76% 0.00 in
22:09 34.4 °F 27.3 °F 29.88 in SSW 2.0 mph 5.0 mph 75% 0.00 in
22:14 34.6 °F 27.5 °F 29.88 in SSW 2.0 mph 5.0 mph 75% 0.00 in
22:19 35.0 °F 27.6 °F 29.88 in SSW 4.0 mph 7.0 mph 74% 0.00 in
22:24 35.3 °F 27.5 °F 29.88 in SSW 2.0 mph 7.0 mph 73% 0.00 in
22:29 35.4 °F 27.6 °F 29.88 in SSW 3.0 mph 6.0 mph 73% 0.00 in
22:34 35.4 °F 27.6 °F 29.88 in SSW 3.0 mph 7.0 mph 73% 0.00 in
22:39 35.4 °F 27.3 °F 29.87 in SSW 3.0 mph 7.0 mph 72% 0.00 in
22:49 35.7 °F 27.6 °F 29.87 in SSW 3.0 mph 10.0 mph 72% 0.00 in
22:54 35.8 °F 27.3 °F 29.87 in South 4.0 mph 10.0 mph 71% 0.00 in
22:59 35.8 °F 27.3 °F 29.87 in SSW 4.0 mph 9.0 mph 71% 0.00 in
23:04 35.8 °F 27.7 °F 29.87 in SSW 3.0 mph 7.0 mph 72% 0.00 in
23:09 35.7 °F 27.6 °F 29.86 in SSW 4.0 mph 7.0 mph 72% 0.00 in
23:14 35.7 °F 27.6 °F 29.86 in SSW 4.0 mph 9.0 mph 72% 0.00 in
23:19 35.9 °F 27.4 °F 29.86 in SSW 4.0 mph 9.0 mph 71% 0.00 in
23:24 35.8 °F 27.7 °F 29.86 in SSW 4.0 mph 7.0 mph 72% 0.00 in
23:29 35.7 °F 27.6 °F 29.85 in SSW 4.0 mph 7.0 mph 72% 0.00 in
23:34 35.9 °F 27.8 °F 29.85 in SSW 4.0 mph 7.0 mph 72% 0.00 in
23:39 36.0 °F 27.9 °F 29.85 in SSW 3.0 mph 7.0 mph 72% 0.00 in
23:44 36.1 °F 28.0 °F 29.85 in SSW 2.0 mph 6.0 mph 72% 0.00 in
23:49 36.2 °F 27.7 °F 29.85 in SSW 2.0 mph 6.0 mph 71% 0.00 in
23:54 36.6 °F 28.1 °F 29.85 in SSW 2.0 mph 6.0 mph 71% 0.00 in
23:59 37.1 °F 28.2 °F 29.85 in SSW 3.0 mph 6.0 mph 70% 0.00 in
Westford Weather
Compliments of Weather Underground

 
 
Current Radar Loop:

Copyright © WestfordWeather.net 2007-2014. All rights reserved.